Time;durP1;ratioP1;P1;durP2;ratioP2;P2;SDS_P1;SDS_P2;PMS_P1;PMS_P2;Temp;Humidity;BMP_temperature;BMP_pressure;BME280_temperature;BME280_humidity;BME280_pressure;Samples;Min_cycle;Max_cycle;Signal;HPM_P1;HPM_P2
2021/11/25 00:00:34;;;;;;;19.98;9.73;;;;;;;6.03;78.21;100783.66;5057684;28;20099;-69
2021/11/25 00:03:00;;;;;;;22.42;9.55;;;;;;;6.11;79.77;100826.97;5056284;28;20059;-68
2021/11/25 00:05:26;;;;;;;17.95;9.88;;;;;;;6.33;76.97;100820.13;5058350;28;20544;-68
2021/11/25 00:07:52;;;;;;;19.27;9.73;;;;;;;6.29;76.38;100823.91;5055363;28;20025;-69
2021/11/25 00:10:18;;;;;;;25.58;11.32;;;;;;;6.26;76.24;100810.13;5057214;28;20136;-68
2021/11/25 00:12:44;;;;;;;18.77;10.32;;;;;;;6.27;75.96;100828.44;5057156;28;20063;-69
2021/11/25 00:15:12;;;;;;;23.58;11.07;;;;;;;6.23;74.59;100823.47;5056436;28;20437;-68
2021/11/25 00:17:38;;;;;;;19.35;12.75;;;;;;;6.14;74.68;100808.34;5058222;28;20230;-68
2021/11/25 00:20:07;;;;;;;20.95;11.82;;;;;;;6.09;77.56;100816.56;5056522;28;20035;-68
2021/11/25 00:22:32;;;;;;;20.45;11.52;;;;;;;6.05;77.74;100815.94;5056707;28;20028;-69
2021/11/25 00:24:57;;;;;;;21.20;13.20;;;;;;;6.24;78.34;100822.53;5058020;28;20031;-68
2021/11/25 00:27:23;;;;;;;27.95;16.42;;;;;;;6.33;76.99;100824.53;5055719;28;20218;-68
2021/11/25 00:29:48;;;;;;;19.33;11.43;;;;;;;6.29;75.39;100817.81;5057214;28;20348;-68
2021/11/25 00:32:14;;;;;;;18.10;11.75;;;;;;;6.24;75.75;100812.88;5057490;28;20357;-69
2021/11/25 00:34:40;;;;;;;18.40;12.60;;;;;;;6.27;76.95;100811.81;5054973;28;20029;-69
2021/11/25 00:37:05;;;;;;;20.88;11.55;;;;;;;6.30;76.54;100814.25;5056544;28;20246;-68
2021/11/25 00:39:31;;;;;;;21.02;11.20;;;;;;;6.29;77.04;100817.81;5055251;28;20388;-69
2021/11/25 00:41:56;;;;;;;21.25;11.32;;;;;;;6.33;76.41;100814.03;5058012;28;20029;-69
2021/11/25 00:44:22;;;;;;;18.20;10.68;;;;;;;6.36;75.46;100808.53;5055602;28;20322;-69
2021/11/25 00:46:47;;;;;;;25.95;11.75;;;;;;;6.28;76.20;100806.47;5057209;28;20032;-68
2021/11/25 00:49:12;;;;;;;20.52;11.35;;;;;;;6.31;76.67;100800.97;5057733;28;20032;-68
2021/11/25 00:51:38;;;;;;;17.88;11.00;;;;;;;6.24;76.24;100805.00;5056224;28;20049;-68
2021/11/25 00:54:03;;;;;;;23.60;11.82;;;;;;;6.19;76.80;100804.44;5055942;28;20029;-68
2021/11/25 00:56:29;;;;;;;26.02;13.63;;;;;;;6.18;76.87;100791.41;5056292;28;20048;-68
2021/11/25 00:58:54;;;;;;;24.98;13.75;;;;;;;6.25;76.83;100793.53;5056280;28;20047;-69
2021/11/25 01:01:20;;;;;;;30.00;14.02;;;;;;;6.07;77.66;100787.75;5056189;28;20116;-68
2021/11/25 01:03:46;;;;;;;26.38;13.50;;;;;;;5.99;77.83;100794.47;5055787;28;20269;-68
2021/11/25 01:06:11;;;;;;;26.55;12.25;;;;;;;5.59;78.21;100793.75;5055537;28;20040;-69
2021/11/25 01:08:37;;;;;;;21.92;12.50;;;;;;;5.37;79.25;100787.31;5055793;28;20040;-69
2021/11/25 01:11:04;;;;;;;26.30;13.07;;;;;;;5.30;79.71;100793.09;5056438;28;20034;-68
2021/11/25 01:13:30;;;;;;;22.73;11.90;;;;;;;5.28;80.40;100800.22;5054966;28;20066;-68
2021/11/25 01:15:56;;;;;;;19.85;11.20;;;;;;;5.34;79.88;100794.56;5055147;28;20120;-68
2021/11/25 01:18:22;;;;;;;23.80;13.00;;;;;;;5.52;79.93;100788.06;5056090;28;20311;-69
2021/11/25 01:20:49;;;;;;;23.17;13.00;;;;;;;5.63;78.92;100785.53;5057177;28;20044;-68
2021/11/25 01:23:21;;;;;;;22.15;11.57;;;;;;;5.55;79.09;100782.59;5054771;28;20035;-68
2021/11/25 01:25:48;;;;;;;23.60;11.77;;;;;;;5.65;78.34;100791.53;5053495;28;20040;-69
2021/11/25 01:28:14;;;;;;;22.08;11.88;;;;;;;5.68;77.55;100780.81;5056660;28;20371;-69
2021/11/25 01:30:45;;;;;;;22.30;10.52;;;;;;;5.59;77.98;100788.47;5052677;28;20072;-68
2021/11/25 01:33:11;;;;;;;25.08;12.00;;;;;;;5.51;78.51;100791.63;5054511;28;20047;-68
2021/11/25 01:35:38;;;;;;;23.50;12.20;;;;;;;5.53;79.13;100784.50;5056943;28;20064;-68
2021/11/25 01:38:06;;;;;;;25.60;12.03;;;;;;;5.65;79.07;100777.56;5054415;28;20060;-68
2021/11/25 01:40:31;;;;;;;28.63;12.95;;;;;;;5.65;78.62;100775.75;5055057;28;20338;-68
2021/11/25 01:42:57;;;;;;;26.03;13.90;;;;;;;5.58;79.02;100764.00;5056246;28;20070;-68
2021/11/25 01:45:24;;;;;;;26.35;13.95;;;;;;;5.40;80.03;100767.88;5054195;28;20036;-69
2021/11/25 01:47:51;;;;;;;20.67;12.17;;;;;;;5.14;80.61;100761.72;5055784;28;20052;-69
2021/11/25 01:50:18;;;;;;;27.70;12.43;;;;;;;5.01;81.04;100769.56;5054229;28;20029;-68
2021/11/25 01:52:45;;;;;;;26.87;14.13;;;;;;;4.87;83.07;100766.19;5055119;28;20056;-68
2021/11/25 01:55:12;;;;;;;25.67;12.37;;;;;;;4.82;83.28;100769.09;5053947;28;20105;-68
2021/11/25 01:57:38;;;;;;;24.57;13.23;;;;;;;4.58;84.90;100761.03;5054548;28;20044;-68
2021/11/25 02:00:42;;;;;;;26.07;14.27;;;;;;;4.46;86.41;100764.47;5056026;28;20043;-69
2021/11/25 02:03:08;;;;;;;31.27;16.48;;;;;;;4.41;86.77;100759.50;5048288;28;20032;-68
2021/11/25 02:05:35;;;;;;;33.00;16.10;;;;;;;4.51;86.15;100761.53;5053544;28;20100;-68
2021/11/25 02:08:01;;;;;;;31.17;15.67;;;;;;;4.56;85.15;100762.09;5053255;28;20272;-68
2021/11/25 02:10:27;;;;;;;29.90;14.90;;;;;;;4.59;85.60;100762.72;5055507;28;20028;-68
2021/11/25 02:12:52;;;;;;;24.03;13.73;;;;;;;4.66;85.60;100771.88;5054726;28;20056;-69
2021/11/25 02:15:19;;;;;;;25.67;13.10;;;;;;;4.89;84.51;100757.25;5054399;28;20033;-69
2021/11/25 02:17:45;;;;;;;21.20;11.73;;;;;;;5.16;83.00;100759.00;5057446;28;20041;-68
2021/11/25 02:20:12;;;;;;;27.40;12.45;;;;;;;4.95;83.96;100766.50;5054201;28;20024;-68
2021/11/25 02:22:40;;;;;;;26.33;12.90;;;;;;;4.86;84.38;100754.84;5055767;28;20033;-69
2021/11/25 02:25:08;;;;;;;23.60;11.47;;;;;;;4.88;84.29;100755.59;5054673;28;20034;-68
2021/11/25 02:27:33;;;;;;;20.23;11.68;;;;;;;4.81;84.69;100751.69;5053149;28;20040;-68
2021/11/25 02:29:59;;;;;;;28.60;13.03;;;;;;;4.95;83.70;100761.25;5055450;28;20111;-68
2021/11/25 02:32:51;;;;;;;22.40;11.70;;;;;;;5.01;83.96;100756.44;5053323;28;20072;-69
2021/11/25 02:35:23;;;;;;;20.53;11.17;;;;;;;5.11;83.02;100756.69;5050212;28;20068;-69
2021/11/25 02:37:50;;;;;;;24.05;11.25;;;;;;;5.00;82.83;100728.53;5054596;28;20041;-68
2021/11/25 02:40:19;;;;;;;24.97;10.90;;;;;;;5.19;82.15;100749.13;5054580;28;20064;-68
2021/11/25 02:42:47;;;;;;;24.90;12.20;;;;;;;5.23;82.06;100753.25;5052811;28;20041;-68
2021/11/25 02:45:12;;;;;;;21.17;10.93;;;;;;;5.08;82.89;100751.63;5055165;28;20025;-68
2021/11/25 02:47:38;;;;;;;22.37;11.07;;;;;;;5.08;83.86;100755.09;5054563;28;20045;-68
2021/11/25 02:50:04;;;;;;;17.70;10.87;;;;;;;5.24;82.70;100754.94;5052653;28;20033;-68
2021/11/25 02:52:29;;;;;;;24.33;12.07;;;;;;;5.28;83.41;100740.66;5055861;28;20044;-68
2021/11/25 02:54:55;;;;;;;24.00;10.50;;;;;;;5.43;83.07;100744.88;5054339;28;20047;-69
2021/11/25 02:57:20;;;;;;;21.15;10.80;;;;;;;5.58;82.70;100742.13;5052781;28;20100;-69
2021/11/25 02:59:45;;;;;;;30.17;12.02;;;;;;;5.38;82.30;100688.34;5052547;28;20045;-68
2021/11/25 03:02:11;;;;;;;33.55;13.45;;;;;;;5.79;81.34;100735.38;5054700;28;20028;-68
2021/11/25 03:04:36;;;;;;;36.67;13.60;;;;;;;5.83;82.40;100742.13;5052253;28;20025;-68
2021/11/25 03:07:02;;;;;;;23.80;12.13;;;;;;;5.86;81.31;100741.91;5054737;28;20056;-68
2021/11/25 03:09:27;;;;;;;50.50;17.55;;;;;;;5.91;81.78;100750.34;5052607;28;20092;-69
2021/11/25 03:11:54;;;;;;;30.42;13.18;;;;;;;6.08;80.64;100733.38;5053642;28;20335;-68
2021/11/25 03:14:20;;;;;;;20.52;11.35;;;;;;;6.17;79.43;100735.34;5056224;28;20356;-68
2021/11/25 03:16:46;;;;;;;26.38;11.95;;;;;;;6.07;79.46;100739.56;5053527;28;20028;-69
2021/11/25 03:19:12;;;;;;;17.60;10.50;;;;;;;6.17;78.82;100723.97;5054877;28;20021;-69
2021/11/25 03:21:38;;;;;;;23.13;11.40;;;;;;;5.76;79.77;100727.72;5052449;28;20051;-68
2021/11/25 03:24:04;;;;;;;21.90;11.82;;;;;;;5.30;81.84;100719.56;5054315;28;20025;-68
2021/11/25 03:26:30;;;;;;;26.93;12.57;;;;;;;4.92;83.75;100722.09;5053050;28;20092;-68
2021/11/25 03:29:00;;;;;;;36.50;12.67;;;;;;;4.62;85.95;100720.56;5053767;28;20191;-68
2021/11/25 03:31:28;;;;;;;29.40;11.97;;;;;;;4.53;87.19;100715.06;5053974;28;20380;-68
2021/11/25 03:33:55;;;;;;;25.67;12.00;;;;;;;4.28;88.43;100714.03;5052452;28;20092;-69
2021/11/25 03:36:22;;;;;;;23.47;11.87;;;;;;;4.07;90.20;100697.88;5053748;28;20378;-68
2021/11/25 03:38:47;;;;;;;24.57;11.40;;;;;;;3.80;91.39;100691.75;5052374;28;20104;-68
2021/11/25 03:41:14;;;;;;;22.77;11.30;;;;;;;3.85;92.45;100702.78;5052707;28;20067;-69
2021/11/25 03:43:39;;;;;;;22.87;11.57;;;;;;;3.76;92.94;100701.56;5054061;28;20338;-69
2021/11/25 03:46:05;;;;;;;23.03;11.50;;;;;;;3.70;92.84;100682.78;5053950;28;20108;-68
2021/11/25 03:48:31;;;;;;;25.87;11.57;;;;;;;3.92;91.74;100690.97;5054442;28;20049;-68
2021/11/25 03:51:01;;;;;;;27.70;12.20;;;;;;;3.98;90.98;100682.72;5053050;28;20037;-68
2021/11/25 03:53:28;;;;;;;25.90;14.17;;;;;;;3.84;91.58;100688.00;5053723;28;20037;-68
2021/11/25 03:55:53;;;;;;;26.87;12.70;;;;;;;3.91;91.13;100683.22;5055605;28;20052;-69
2021/11/25 03:58:19;;;;;;;27.10;12.60;;;;;;;3.89;91.56;100678.06;5053285;28;20037;-68
2021/11/25 04:00:47;;;;;;;28.60;12.77;;;;;;;4.04;90.53;100690.19;5054817;28;20036;-68
2021/11/25 04:03:13;;;;;;;31.97;13.87;;;;;;;4.31;89.36;100685.00;5052915;28;20174;-68
2021/11/25 04:05:39;;;;;;;20.98;11.65;;;;;;;4.56;88.75;100684.25;5052028;28;20345;-69
2021/11/25 04:08:04;;;;;;;26.53;12.60;;;;;;;4.83;87.32;100684.19;5053384;28;20049;-69
2021/11/25 04:10:30;;;;;;;22.23;11.77;;;;;;;5.01;85.65;100692.63;5053397;28;20098;-68
2021/11/25 04:12:55;;;;;;;32.42;16.48;;;;;;;5.14;84.40;100690.84;5054551;28;20053;-68
2021/11/25 04:15:21;;;;;;;39.05;18.38;;;;;;;4.91;84.62;100694.19;5052537;28;20119;-68
2021/11/25 04:17:46;;;;;;;26.17;13.40;;;;;;;4.91;84.98;100704.66;5058021;28;20041;-68
2021/11/25 04:20:13;;;;;;;27.77;12.25;;;;;;;4.62;85.81;100693.50;5056113;28;20230;-68
2021/11/25 04:22:38;;;;;;;24.33;11.98;;;;;;;4.30;87.33;100704.28;5056978;28;20045;-69
2021/11/25 04:25:06;;;;;;;22.70;11.77;;;;;;;4.69;84.90;100700.00;5056103;28;20044;-69
2021/11/25 04:27:31;;;;;;;21.87;10.90;;;;;;;4.67;84.62;100699.28;5055386;28;20079;-68
2021/11/25 04:35:29;;;;;;;21.63;11.85;;;;;;;4.97;84.04;100701.63;5056088;28;20078;-69
2021/11/25 04:38:18;;;;;;;22.77;11.77;;;;;;;5.04;83.55;100700.28;5056702;28;20250;-68
2021/11/25 04:40:56;;;;;;;24.83;12.45;;;;;;;5.22;82.26;100692.97;5058617;28;20374;-68
2021/11/25 04:43:23;;;;;;;56.33;23.08;;;;;;;5.27;81.60;100696.97;5056545;28;20040;-69
2021/11/25 04:45:50;;;;;;;67.40;26.05;;;;;;;5.41;80.92;100699.47;5055153;28;20049;-69
2021/11/25 04:48:19;;;;;;;58.85;26.90;;;;;;;5.44;80.43;100698.44;5056056;28;20033;-68
2021/11/25 04:50:45;;;;;;;67.82;25.63;;;;;;;5.40;80.77;100700.44;5056927;28;20323;-68
2021/11/25 04:53:12;;;;;;;63.45;20.15;;;;;;;5.21;81.25;100704.41;5055642;28;20047;-69
2021/11/25 04:55:38;;;;;;;48.95;19.48;;;;;;;5.06;81.55;100686.09;5056978;28;20036;-68
2021/11/25 04:58:04;;;;;;;58.97;30.10;;;;;;;5.36;80.58;100688.44;5056016;28;20029;-68
2021/11/25 05:00:29;;;;;;;81.75;27.73;;;;;;;5.43;80.56;100699.38;5054746;28;20092;-68
2021/11/25 05:02:55;;;;;;;40.38;19.45;;;;;;;5.52;80.29;100687.41;5055779;28;20043;-68
2021/11/25 05:05:22;;;;;;;36.50;16.35;;;;;;;5.56;79.58;100681.81;5055160;28;20438;-68
2021/11/25 05:07:47;;;;;;;59.63;21.00;;;;;;;5.60;79.00;100695.56;5056113;28;20035;-68
2021/11/25 05:10:13;;;;;;;34.83;16.98;;;;;;;5.64;79.62;100689.16;5057078;28;20057;-69
2021/11/25 05:12:39;;;;;;;40.17;15.35;;;;;;;5.60;79.09;100688.53;5054336;28;20325;-69
2021/11/25 05:15:06;;;;;;;41.13;17.30;;;;;;;5.51;79.68;100680.47;5056462;28;20108;-68
2021/11/25 05:17:32;;;;;;;29.23;15.13;;;;;;;5.69;78.48;100690.53;5055472;28;20040;-68
2021/11/25 05:19:57;;;;;;;44.67;20.10;;;;;;;5.64;79.04;100697.88;5056995;28;20028;-68
2021/11/25 05:22:23;;;;;;;49.17;19.60;;;;;;;5.68;79.25;100701.13;5056346;28;20390;-68
2021/11/25 05:24:48;;;;;;;47.38;19.08;;;;;;;5.69;78.75;100695.78;5054784;28;20215;-68
2021/11/25 05:27:14;;;;;;;40.47;17.60;;;;;;;5.74;78.90;100696.28;5055681;28;20036;-68
2021/11/25 05:29:39;;;;;;;49.08;18.98;;;;;;;5.50;80.24;100689.28;5055972;28;20091;-69
2021/11/25 05:32:05;;;;;;;45.97;20.48;;;;;;;5.74;79.24;100708.59;5054617;28;20040;-69
2021/11/25 05:34:31;;;;;;;45.85;18.90;;;;;;;5.79;79.11;100695.97;5056394;28;20056;-68
2021/11/25 05:36:56;;;;;;;35.10;17.90;;;;;;;5.72;79.48;100697.34;5054382;28;20029;-68
2021/11/25 05:39:22;;;;;;;58.08;19.63;;;;;;;5.71;78.84;100688.63;5055330;28;20092;-68
2021/11/25 05:41:47;;;;;;;30.00;15.13;;;;;;;5.70;79.51;100704.50;5056168;28;20044;-69
2021/11/25 05:44:14;;;;;;;29.90;14.35;;;;;;;5.71;79.06;100683.38;5056359;28;20028;-68
2021/11/25 05:46:39;;;;;;;35.67;14.38;;;;;;;5.78;79.77;100697.75;5055542;28;20047;-68
2021/11/25 05:49:05;;;;;;;32.28;13.82;;;;;;;5.91;78.74;100689.88;5054047;28;20057;-68
2021/11/25 05:51:30;;;;;;;29.50;13.65;;;;;;;5.86;78.42;100691.13;5053863;28;20040;-68
2021/11/25 05:53:56;;;;;;;30.27;16.05;;;;;;;5.96;78.43;100694.81;5055924;28;20040;-68
2021/11/25 05:56:21;;;;;;;149.77;42.88;;;;;;;6.07;78.80;100693.09;5053780;28;20382;-68
2021/11/25 05:58:46;;;;;;;137.93;36.30;;;;;;;6.14;78.00;100696.13;5056182;28;20051;-68
2021/11/25 06:01:12;;;;;;;86.47;34.25;;;;;;;6.32;78.20;100694.81;5056076;28;20033;-69
2021/11/25 06:03:37;;;;;;;71.47;32.80;;;;;;;6.40;77.81;100697.72;5050510;28;20040;-69
2021/11/25 06:06:03;;;;;;;67.80;33.35;;;;;;;6.30;78.62;100701.97;5055834;28;20266;-68
2021/11/25 06:08:28;;;;;;;74.88;33.22;;;;;;;6.45;78.17;100705.28;5054812;28;20021;-69
2021/11/25 06:10:55;;;;;;;66.78;32.35;;;;;;;6.42;78.86;100705.50;5056651;28;20037;-68
2021/11/25 06:13:21;;;;;;;58.60;28.63;;;;;;;6.61;78.06;100710.25;5054344;28;20032;-68
2021/11/25 06:15:47;;;;;;;59.75;27.55;;;;;;;6.56;78.12;100704.50;5054511;28;20029;-68
2021/11/25 06:18:14;;;;;;;57.63;25.10;;;;;;;6.66;77.72;100705.50;5054418;28;20030;-68
2021/11/25 06:20:39;;;;;;;52.63;25.70;;;;;;;6.67;78.09;100702.75;5053244;28;20078;-68
2021/11/25 06:23:05;;;;;;;110.20;37.70;;;;;;;6.80;77.19;100701.84;5054509;28;20305;-69
2021/11/25 06:25:31;;;;;;;42.88;18.27;;;;;;;6.83;78.02;100704.22;5054659;28;20091;-69
2021/11/25 06:27:56;;;;;;;41.10;19.38;;;;;;;6.86;77.45;100694.31;5053592;28;20033;-69
2021/11/25 06:30:22;;;;;;;34.63;18.30;;;;;;;6.86;77.51;100696.94;5055319;28;20078;-68
2021/11/25 06:32:49;;;;;;;34.15;19.05;;;;;;;7.09;76.92;100702.28;5053445;28;20028;-68
2021/11/25 06:35:16;;;;;;;30.52;17.38;;;;;;;7.27;75.65;100698.22;5054587;28;20091;-68
2021/11/25 06:37:47;;;;;;;31.33;16.88;;;;;;;7.15;76.52;100710.53;5054727;28;20051;-68
2021/11/25 06:40:18;;;;;;;117.00;28.52;;;;;;;7.25;76.05;100695.72;5051545;28;20094;-68
2021/11/25 06:42:44;;;;;;;34.42;18.17;;;;;;;7.46;74.73;100701.16;5054199;28;20409;-68
2021/11/25 06:45:10;;;;;;;41.38;18.83;;;;;;;7.58;74.17;100697.56;5056432;28;20024;-69
2021/11/25 06:47:36;;;;;;;34.97;18.10;;;;;;;7.75;73.37;100695.41;5053216;28;20060;-68
2021/11/25 06:50:09;;;;;;;18.33;11.20;;;;;;;7.69;72.74;100694.09;5054152;28;20274;-68
2021/11/25 06:52:34;;;;;;;22.05;9.88;;;;;;;7.52;71.27;100702.47;5054193;28;20369;-68
2021/11/25 06:55:00;;;;;;;19.48;10.88;;;;;;;7.47;72.09;100702.84;5053833;28;20100;-68
2021/11/25 06:57:26;;;;;;;18.23;10.80;;;;;;;7.64;71.41;100706.78;5054180;28;20021;-68
2021/11/25 06:59:52;;;;;;;20.70;11.43;;;;;;;7.87;72.12;100690.00;5054191;28;20222;-69
2021/11/25 07:02:17;;;;;;;17.25;10.70;;;;;;;8.04;70.36;100690.47;5049677;28;20040;-69
2021/11/25 07:04:42;;;;;;;20.50;11.85;;;;;;;8.04;72.72;100690.47;5048488;28;20033;-68
2021/11/25 07:07:08;;;;;;;24.75;12.60;;;;;;;7.98;70.70;100694.44;5047425;28;20326;-69
2021/11/25 07:09:34;;;;;;;25.92;11.80;;;;;;;8.34;70.23;100692.50;5047073;28;20302;-68
2021/11/25 07:11:59;;;;;;;23.85;11.35;;;;;;;8.64;68.17;100689.97;5054299;28;20076;-68
2021/11/25 07:14:25;;;;;;;25.67;11.75;;;;;;;8.76;68.29;100682.84;5060377;28;20103;-68
2021/11/25 07:16:50;;;;;;;19.52;10.73;;;;;;;8.92;67.77;100685.88;5053212;28;20320;-68
2021/11/25 07:19:15;;;;;;;19.88;10.90;;;;;;;8.87;68.29;100682.78;5052924;28;20029;-68
2021/11/25 07:21:41;;;;;;;23.50;13.40;;;;;;;9.14;66.88;100687.56;5045152;28;20048;-68
2021/11/25 07:24:06;;;;;;;21.33;12.10;;;;;;;9.23;67.09;100686.78;5043313;28;20021;-68
2021/11/25 07:26:32;;;;;;;35.38;14.90;;;;;;;9.58;65.59;100684.63;5053437;28;20045;-68
2021/11/25 07:28:57;;;;;;;26.30;12.77;;;;;;;9.97;64.33;100683.91;5053440;28;20079;-68
2021/11/25 07:31:30;;;;;;;21.92;12.75;;;;;;;9.93;64.26;100683.34;5053658;28;20045;-68
2021/11/25 07:33:56;;;;;;;30.15;14.70;;;;;;;9.98;64.13;100683.78;5053682;28;20278;-69
2021/11/25 07:36:23;;;;;;;27.08;14.70;;;;;;;10.25;63.63;100680.50;5052712;28;20326;-68
2021/11/25 07:38:48;;;;;;;30.55;16.55;;;;;;;9.77;64.64;100677.72;5055565;28;20033;-67
2021/11/25 07:41:14;;;;;;;28.45;15.35;;;;;;;9.96;64.29;100669.00;5053829;28;20104;-68
2021/11/25 07:43:39;;;;;;;29.13;15.40;;;;;;;10.38;62.12;100678.44;5053451;28;20044;-67
2021/11/25 07:46:04;;;;;;;30.30;13.65;;;;;;;10.27;64.32;100675.09;5055201;28;20432;-67
2021/11/25 07:48:30;;;;;;;23.23;12.95;;;;;;;9.76;62.76;100686.63;5052400;28;20344;-67
2021/11/25 07:50:56;;;;;;;19.05;12.20;;;;;;;9.80;63.15;100683.56;5054735;28;20075;-67
2021/11/25 07:53:21;;;;;;;27.88;15.75;;;;;;;9.14;65.06;100684.91;5056006;28;20131;-67
2021/11/25 07:55:47;;;;;;;33.17;16.60;;;;;;;9.22;65.37;100690.38;5056137;28;20051;-67
2021/11/25 07:58:12;;;;;;;32.10;14.45;;;;;;;8.95;66.74;100683.81;5057596;28;20033;-67
2021/11/25 08:00:38;;;;;;;24.75;13.73;;;;;;;8.94;67.27;100684.78;5056659;28;20040;-67
2021/11/25 08:03:04;;;;;;;22.95;11.90;;;;;;;8.76;67.24;100682.84;5056331;28;20041;-67
2021/11/25 08:05:29;;;;;;;18.42;11.68;;;;;;;8.63;68.48;100690.94;5055947;28;20345;-68
2021/11/25 08:07:58;;;;;;;23.23;11.13;;;;;;;8.72;67.55;100679.63;5056639;28;20256;-68
2021/11/25 08:10:25;;;;;;;25.35;10.30;;;;;;;8.54;69.01;100684.63;5055751;28;20314;-67
2021/11/25 08:12:53;;;;;;;19.63;9.27;;;;;;;8.56;67.30;100682.69;5056260;28;20587;-67
2021/11/25 08:15:19;;;;;;;17.50;9.65;;;;;;;8.29;68.56;100680.44;5055519;28;20071;-67
2021/11/25 08:17:45;;;;;;;19.77;10.15;;;;;;;8.60;68.40;100680.63;5056644;28;20052;-67
2021/11/25 08:20:11;;;;;;;21.65;12.07;;;;;;;8.69;67.54;100679.88;5052809;28;20021;-67
2021/11/25 08:22:37;;;;;;;24.10;10.63;;;;;;;8.93;67.23;100675.19;5056176;28;20029;-67
2021/11/25 08:25:05;;;;;;;24.48;11.55;;;;;;;8.88;69.18;100682.66;5057000;28;20214;-68
2021/11/25 08:27:32;;;;;;;25.38;11.35;;;;;;;8.85;70.14;100672.34;5055983;28;20028;-68
2021/11/25 08:29:57;;;;;;;23.58;11.90;;;;;;;8.75;68.72;100646.84;5056830;28;20275;-67
2021/11/25 08:32:23;;;;;;;20.38;11.57;;;;;;;8.95;68.30;100673.25;5054531;28;20273;-67
2021/11/25 08:34:48;;;;;;;24.92;11.90;;;;;;;9.14;68.24;100666.41;5055648;28;20075;-67
2021/11/25 08:37:14;;;;;;;19.08;11.10;;;;;;;9.22;65.97;100667.44;5056450;28;20207;-67
2021/11/25 08:39:39;;;;;;;21.25;9.25;;;;;;;8.81;67.86;100657.72;5056032;28;20045;-67
2021/11/25 08:42:06;;;;;;;24.27;10.48;;;;;;;8.62;69.03;100653.13;5055642;28;20052;-67
2021/11/25 08:44:32;;;;;;;24.42;10.90;;;;;;;8.69;68.79;100642.91;5054277;28;20303;-68
2021/11/25 08:46:59;;;;;;;24.48;11.45;;;;;;;8.82;67.55;100646.19;5055403;28;20117;-68
2021/11/25 08:49:25;;;;;;;23.60;11.68;;;;;;;9.11;66.41;100633.16;5054262;28;20049;-67
2021/11/25 08:51:51;;;;;;;20.23;11.30;;;;;;;9.07;68.15;100634.38;5056663;28;20298;-67
2021/11/25 08:54:17;;;;;;;29.42;11.50;;;;;;;8.84;66.63;100633.69;5057670;28;20075;-67
2021/11/25 08:56:42;;;;;;;24.83;11.75;;;;;;;8.91;66.90;100628.72;5062423;28;20323;-67
2021/11/25 08:59:08;;;;;;;31.52;14.25;;;;;;;8.61;68.92;100630.34;5062321;28;20070;-67
2021/11/25 09:01:34;;;;;;;22.45;11.80;;;;;;;8.43;67.85;100618.69;5062424;28;20075;-68
2021/11/25 09:03:59;;;;;;;29.02;12.90;;;;;;;8.32;70.38;100618.66;5061582;28;20102;-67
2021/11/25 09:06:24;;;;;;;30.00;14.05;;;;;;;8.38;69.36;100596.28;5062244;28;20041;-68
2021/11/25 09:08:50;;;;;;;22.92;10.95;;;;;;;8.69;69.98;100605.94;5061926;28;20222;-68
2021/11/25 09:11:16;;;;;;;22.60;11.35;;;;;;;8.43;69.49;100612.56;5062192;28;20045;-67
2021/11/25 09:13:42;;;;;;;23.42;11.90;;;;;;;8.29;71.16;100611.00;5062189;28;20319;-67
2021/11/25 09:16:07;;;;;;;23.80;11.80;;;;;;;8.22;70.26;100599.28;5060774;28;20075;-68
2021/11/25 09:18:33;;;;;;;20.92;11.18;;;;;;;8.53;70.00;100608.19;5062455;28;20033;-67
2021/11/25 09:20:58;;;;;;;27.60;13.52;;;;;;;8.61;69.39;100603.09;5062293;28;20319;-67
2021/11/25 09:23:24;;;;;;;24.60;12.57;;;;;;;8.61;68.98;100600.47;5061874;28;20299;-67
2021/11/25 09:25:52;;;;;;;26.88;13.23;;;;;;;8.71;68.91;100598.72;5044003;28;20052;-67
2021/11/25 09:28:23;;;;;;;25.17;12.10;;;;;;;8.79;67.69;100588.34;5061970;28;20028;-67
2021/11/25 09:30:49;;;;;;;20.98;12.32;;;;;;;8.89;68.14;100580.50;5061471;28;20305;-68
2021/11/25 09:33:15;;;;;;;29.33;12.77;;;;;;;8.86;68.64;100571.03;5061744;28;20032;-67
2021/11/25 09:35:41;;;;;;;28.60;13.25;;;;;;;8.85;68.46;100568.50;5060416;28;20033;-67
2021/11/25 09:38:09;;;;;;;23.25;13.02;;;;;;;9.21;68.19;100562.69;5061607;28;20033;-67
2021/11/25 09:40:35;;;;;;;25.95;13.82;;;;;;;8.85;68.54;100560.59;5061891;28;20056;-67
2021/11/25 09:43:05;;;;;;;31.20;13.90;;;;;;;8.93;68.88;100566.88;5053692;28;20230;-68
2021/11/25 09:45:33;;;;;;;27.55;13.65;;;;;;;9.08;68.08;100551.53;5055370;28;20040;-68
2021/11/25 09:48:05;;;;;;;22.88;13.00;;;;;;;9.27;67.05;100548.94;5054539;28;20094;-67
2021/11/25 09:50:32;;;;;;;30.48;14.88;;;;;;;9.36;67.21;100546.47;5053226;28;20106;-67
2021/11/25 09:53:01;;;;;;;30.90;15.25;;;;;;;9.39;68.55;100536.50;5053235;28;20059;-68
2021/11/25 09:55:28;;;;;;;27.25;13.93;;;;;;;9.32;67.58;100542.44;5055333;28;20029;-67
2021/11/25 09:57:54;;;;;;;25.65;13.90;;;;;;;8.64;69.67;100540.31;5053544;28;20039;-67
2021/11/25 10:00:22;;;;;;;25.38;14.00;;;;;;;8.72;69.80;100541.47;5053721;28;20036;-67
2021/11/25 10:02:47;;;;;;;27.25;14.55;;;;;;;8.98;68.02;100528.69;5059644;28;20044;-67
2021/11/25 10:05:13;;;;;;;25.00;14.10;;;;;;;8.89;70.60;100536.44;5060604;28;20319;-67
2021/11/25 10:07:41;;;;;;;27.38;14.85;;;;;;;8.68;70.27;100514.50;5061062;28;20048;-67
2021/11/25 10:10:30;;;;;;;29.35;15.68;;;;;;;9.15;69.26;100518.31;5061229;28;20095;-68
2021/11/25 10:13:19;;;;;;;25.30;13.50;;;;;;;9.52;66.06;100523.88;5061019;28;20025;-68
2021/11/25 10:15:47;;;;;;;31.95;14.68;;;;;;;9.70;66.85;100512.63;5060435;28;20025;-68
2021/11/25 10:18:17;;;;;;;21.92;11.68;;;;;;;9.49;65.18;100508.28;5061028;28;20047;-68
2021/11/25 10:20:46;;;;;;;22.90;12.23;;;;;;;9.44;64.95;100521.06;5061212;28;20333;-67
2021/11/25 10:23:19;;;;;;;28.33;13.98;;;;;;;9.22;68.39;100516.81;5060535;28;20028;-67
2021/11/25 10:26:06;;;;;;;27.23;14.75;;;;;;;9.37;67.79;100516.47;5060629;28;20323;-67
2021/11/25 10:29:11;;;;;;;24.67;13.68;;;;;;;9.38;66.70;100503.09;5060900;28;20033;-67
2021/11/25 10:31:42;;;;;;;28.58;14.98;;;;;;;9.41;67.29;100502.84;5018424;28;20347;-68
2021/11/25 10:34:19;;;;;;;25.90;14.68;;;;;;;9.47;68.09;100496.16;5054796;28;20381;-67
2021/11/25 10:41:52;;;;;;;22.17;13.52;;;;;;;9.52;65.70;100486.03;5060979;28;20104;-68
2021/11/25 10:44:23;;;;;;;25.75;14.05;;;;;;;9.87;66.38;100493.41;5060717;28;20037;-67
2021/11/25 10:47:13;;;;;;;28.75;15.25;;;;;;;9.84;66.47;100485.75;5060159;28;20043;-68
2021/11/25 10:49:59;;;;;;;25.20;13.10;;;;;;;10.17;64.79;100472.09;5059445;28;20086;-67
2021/11/25 10:52:29;;;;;;;23.85;13.32;;;;;;;9.96;63.20;100467.94;5060414;28;20024;-68
2021/11/25 10:55:13;;;;;;;23.75;12.90;;;;;;;10.13;62.15;100470.69;5060365;28;20052;-68
2021/11/25 10:57:48;;;;;;;23.38;12.70;;;;;;;9.90;63.29;100470.16;5059313;28;20128;-67
2021/11/25 11:00:23;;;;;;;23.52;13.05;;;;;;;10.08;62.34;100461.53;5060185;28;20033;-67
2021/11/25 11:03:07;;;;;;;26.67;13.23;;;;;;;9.95;61.97;100453.88;5060338;28;20040;-68
2021/11/25 11:05:57;;;;;;;23.15;12.48;;;;;;;10.07;63.40;100444.81;5058930;28;20059;-68
2021/11/25 11:08:24;;;;;;;22.80;12.30;;;;;;;10.08;63.45;100443.00;5059484;28;20075;-67
2021/11/25 11:11:01;;;;;;;21.25;12.35;;;;;;;10.14;63.09;100437.97;5059990;28;20044;-68
2021/11/25 11:18:47;;;;;;;19.08;11.48;;;;;;;10.16;61.63;100425.44;5060375;28;20079;-67
2021/11/25 11:21:31;;;;;;;17.23;10.32;;;;;;;10.10;61.13;100426.00;5060512;28;20029;-68
2021/11/25 11:24:00;;;;;;;19.10;10.63;;;;;;;9.87;61.58;100417.53;5059749;28;20037;-68
2021/11/25 11:26:26;;;;;;;18.95;10.48;;;;;;;10.08;62.21;100425.31;5062131;28;20056;-68
2021/11/25 11:28:51;;;;;;;16.02;9.85;;;;;;;10.15;59.99;100413.19;5064000;28;20099;-68
2021/11/25 11:31:17;;;;;;;24.55;10.77;;;;;;;9.99;60.67;100412.94;5063686;28;20064;-68
2021/11/25 11:33:43;;;;;;;17.13;10.55;;;;;;;10.20;59.87;100413.63;5064233;28;20037;-68